Terminal Aerodrome Forecast
Issued by NWS

Home | Current Version | Previous Version | Text Only | Print | Product List | Glossary On
Versions: 1 2 3 4 5 6 7 8 9 10 11 12 13 14
035
FTUS41 KPHI 232339
TAFPNE
TAF
KPNE 232339Z 2400/2424 20007KT P6SM BKN250
     FM240200 20005KT P6SM BKN090
     FM240800 21003KT 4SM BR SCT060
     FM241000 VRB03KT 2SM BR SCT004
      TEMPO 2410/2413 1/2SM FG OVC003
     FM241300 19003KT 1 1/2SM BR OVC008
     FM241500 20006KT 3SM BR SCT010
     FM241600 20009KT P6SM SCT035=

USA.gov is the U.S. government's official web portal to all federal, state and local government web resources and services.